Terminal Aerodrome Forecast
Issued by NWS

Home | Current Version | Previous Version | Text Only | Print | Product List | Glossary On
Versions: 1 2 3 4 5 6 7 8 9 10 11 12 13 14 15 16 17 18 19 20 21 22
000
FTUS45 KSLC 171120
TAFENV
TAF
KENV 171120Z 1712/1812 15005KT P6SM FEW120
     FM180200 29006KT P6SM BKN120
     FM180600 VRB04KT P6SM FEW100 BKN120
      AMD LTD TO CLD VIS AND WIND=

USA.gov is the U.S. government's official web portal to all federal, state and local government web resources and services.